Time;durP1;ratioP1;P1;durP2;ratioP2;P2;SDS_P1;SDS_P2;PMS_P1;PMS_P2;Temp;Humidity;BMP_temperature;BMP_pressure;BME280_temperature;BME280_humidity;BME280_pressure;Samples;Min_cycle;Max_cycle;Signal;HPM_P1;HPM_P2
2023/10/06 00:01:43;;;;;;;0.95;0.80;;;13.70;99.90;;;;;;5053237;28;20090;-66
2023/10/06 00:04:14;;;;;;;2.03;1.25;;;13.70;99.90;;;;;;5053282;28;20041;-66
2023/10/06 00:06:41;;;;;;;1.45;0.73;;;13.80;99.90;;;;;;5053468;28;20072;-66
2023/10/06 00:09:09;;;;;;;1.42;0.95;;;13.70;99.90;;;;;;5053303;28;20045;-65
2023/10/06 00:11:40;;;;;;;3.45;0.88;;;13.90;99.90;;;;;;5018831;28;20079;-65
2023/10/06 00:14:07;;;;;;;;;;;13.80;99.90;;;;;;5053893;28;20084;-65
2023/10/06 00:16:39;;;;;;;1.42;1.10;;;13.80;99.90;;;;;;5053143;28;19917;-64
2023/10/06 00:19:21;;;;;;;2.53;1.05;;;13.80;99.90;;;;;;5053335;28;20404;-64
2023/10/06 00:21:53;;;;;;;1.92;1.30;;;14.30;99.90;;;;;;5053158;28;20037;-65
2023/10/06 00:24:25;;;;;;;1.92;1.17;;;13.80;99.90;;;;;;5053265;28;20484;-65
2023/10/06 00:26:51;;;;;;;1.95;1.20;;;14.40;99.90;;;;;;5035030;28;20045;-65
2023/10/06 00:29:20;;;;;;;1.40;0.98;;;13.80;99.90;;;;;;5053162;28;20535;-64
2023/10/06 00:31:47;;;;;;;1.08;0.90;;;13.80;99.90;;;;;;5053157;28;20048;-65
2023/10/06 00:34:19;;;;;;;1.55;0.88;;;13.80;99.90;;;;;;5034902;28;20120;-64
2023/10/06 00:36:51;;;;;;;1.40;1.00;;;13.90;99.90;;;;;;5053083;28;20052;-64
2023/10/06 00:39:22;;;;;;;4.20;1.33;;;13.90;99.90;;;;;;5052780;28;20045;-65
2023/10/06 00:41:48;;;;;;;;;;;14.00;99.90;;;;;;5053416;28;20049;-64
2023/10/06 00:44:14;;;;;;;1.80;1.27;;;13.80;99.90;;;;;;5052805;28;19946;-65
2023/10/06 00:46:42;;;;;;;1.70;1.00;;;13.80;99.90;;;;;;5052906;28;20059;-65
2023/10/06 00:49:07;;;;;;;2.72;1.50;;;13.80;99.90;;;;;;5052999;28;20041;-64
2023/10/06 00:51:33;;;;;;;1.48;1.30;;;13.80;99.90;;;;;;5052694;28;20076;-64
2023/10/06 00:53:59;;;;;;;1.83;1.30;;;13.80;99.90;;;;;;5052928;28;20033;-65
2023/10/06 00:56:28;;;;;;;1.80;1.23;;;14.10;99.90;;;;;;5052597;28;20037;-65
2023/10/06 00:58:54;;;;;;;1.77;1.08;;;13.80;99.90;;;;;;5052911;28;20112;-65
2023/10/06 01:01:21;;;;;;;2.70;1.40;;;13.80;99.90;;;;;;5052873;28;20108;-64
2023/10/06 01:04:00;;;;;;;2.25;1.48;;;13.80;99.90;;;;;;5053164;28;20401;-64
2023/10/06 01:06:33;;;;;;;2.40;1.17;;;13.80;99.90;;;;;;5052776;28;20098;-64
2023/10/06 01:09:09;;;;;;;1.83;1.35;;;13.80;99.90;;;;;;5052939;28;20366;-64
2023/10/06 01:11:49;;;;;;;1.90;1.15;;;13.80;99.90;;;;;;5034744;28;20045;-64
2023/10/06 01:14:21;;;;;;;2.00;1.10;;;13.80;99.90;;;;;;5034894;28;20040;-64
2023/10/06 01:16:49;;;;;;;1.55;1.20;;;13.80;99.90;;;;;;5052761;28;20041;-64
2023/10/06 01:19:17;;;;;;;1.75;1.27;;;13.80;99.90;;;;;;5052567;28;20041;-66
2023/10/06 01:21:48;;;;;;;1.10;1.00;;;13.80;99.90;;;;;;5052568;28;20433;-66
2023/10/06 01:24:24;;;;;;;2.05;1.30;;;13.80;99.90;;;;;;5052708;28;20404;-66
2023/10/06 01:26:51;;;;;;;3.47;1.50;;;13.80;99.90;;;;;;5034470;28;20063;-66
2023/10/06 01:29:17;;;;;;;2.65;1.20;;;13.90;99.90;;;;;;5034667;28;20032;-66
2023/10/06 01:31:44;;;;;;;1.70;1.23;;;13.90;99.90;;;;;;5034469;28;20041;-66
2023/10/06 01:34:12;;;;;;;1.10;1.00;;;13.90;99.90;;;;;;5055232;28;20404;-66
2023/10/06 01:36:38;;;;;;;3.22;1.65;;;13.80;99.90;;;;;;5056313;28;20088;-66
2023/10/06 01:39:15;;;;;;;2.03;1.60;;;13.90;99.90;;;;;;5056078;28;20033;-66
2023/10/06 01:41:41;;;;;;;1.60;1.45;;;13.80;99.90;;;;;;5055926;28;20033;-66
2023/10/06 01:44:10;;;;;;;1.48;1.38;;;13.80;99.90;;;;;;5056263;28;20119;-66
2023/10/06 01:46:39;;;;;;;2.60;1.58;;;13.90;99.90;;;;;;5055753;28;20465;-66
2023/10/06 01:49:10;;;;;;;1.40;1.25;;;14.50;99.90;;;;;;5056187;28;20111;-66
2023/10/06 01:51:38;;;;;;;1.23;1.02;;;13.90;99.90;;;;;;5056034;28;20120;-66
2023/10/06 01:54:07;;;;;;;2.53;1.25;;;13.90;99.90;;;;;;5055760;28;20033;-66
2023/10/06 01:56:34;;;;;;;1.55;1.17;;;13.90;99.90;;;;;;5037839;28;20041;-66
2023/10/06 01:59:01;;;;;;;1.70;1.17;;;13.90;99.90;;;;;;5055649;28;20037;-66
2023/10/06 02:01:27;;;;;;;1.77;1.42;;;14.00;99.90;;;;;;5055812;28;20048;-66
2023/10/06 02:03:53;;;;;;;2.25;1.13;;;14.00;99.90;;;;;;5037999;28;20397;-66
2023/10/06 02:06:18;;;;;;;1.48;1.08;;;13.90;99.90;;;;;;5055456;28;20044;-66
2023/10/06 02:08:49;;;;;;;1.15;1.05;;;14.00;99.90;;;;;;5055825;28;20033;-66
2023/10/06 02:11:15;;;;;;;1.65;1.38;;;14.00;99.90;;;;;;5055712;28;20373;-66
2023/10/06 02:13:41;;;;;;;1.70;1.30;;;14.00;99.90;;;;;;5055318;28;20044;-66
2023/10/06 02:16:07;;;;;;;1.73;1.45;;;14.00;99.90;;;;;;5055321;28;20037;-66
2023/10/06 02:18:40;;;;;;;1.27;1.17;;;14.00;99.90;;;;;;5055641;28;20049;-66
2023/10/06 02:21:11;;;;;;;2.08;1.30;;;14.00;99.90;;;;;;5037697;28;20055;-66
2023/10/06 02:23:38;;;;;;;2.88;1.70;;;14.00;99.90;;;;;;5055523;28;20044;-66
2023/10/06 02:26:09;;;;;;;1.55;1.35;;;14.50;99.90;;;;;;5055475;28;20443;-66
2023/10/06 02:28:40;;;;;;;2.05;1.30;;;14.10;99.90;;;;;;5055414;28;20047;-65
2023/10/06 02:31:06;;;;;;;;;;;14.00;99.90;;;;;;5055771;28;20481;-64
2023/10/06 02:33:39;;;;;;;1.85;1.20;;;14.00;99.90;;;;;;5036986;28;19971;-64
2023/10/06 02:39:05;;;;;;;1.98;1.40;;;14.00;99.90;;;;;;5033627;28;20503;-65
2023/10/06 02:41:32;;;;;;;1.83;1.35;;;14.00;99.90;;;;;;5055156;28;20037;-64
2023/10/06 02:44:14;;;;;;;1.67;1.58;;;14.10;99.90;;;;;;5054235;28;20120;-65
2023/10/06 02:46:44;;;;;;;2.72;1.50;;;14.10;99.90;;;;;;5054920;28;20088;-65
2023/10/06 02:49:11;;;;;;;2.00;1.20;;;14.10;99.90;;;;;;5055041;28;20090;-65
2023/10/06 02:51:47;;;;;;;2.15;1.40;;;14.10;99.90;;;;;;5054927;28;20378;-65
2023/10/06 02:56:40;;;;;;;1.42;1.20;;;14.00;99.90;;;;;;5054810;28;20435;-65
2023/10/06 02:59:20;;;;;;;1.85;1.33;;;14.10;99.90;;;;;;5054550;28;20040;-64
2023/10/06 03:01:55;;;;;;;1.65;1.20;;;14.10;99.90;;;;;;5054875;28;20041;-64
2023/10/06 03:04:24;;;;;;;1.55;1.45;;;14.40;99.90;;;;;;5054459;28;20037;-65
2023/10/06 03:06:53;;;;;;;2.83;1.38;;;14.00;99.90;;;;;;5036707;28;20056;-64
2023/10/06 03:09:43;;;;;;;1.83;1.50;;;14.00;99.90;;;;;;5036525;28;20040;-64
2023/10/06 03:12:15;;;;;;;1.52;1.10;;;13.90;99.90;;;;;;5036691;28;20072;-65
2023/10/06 03:14:42;;;;;;;2.17;1.30;;;14.30;99.90;;;;;;5054207;28;20116;-64
2023/10/06 03:17:09;;;;;;;1.50;1.27;;;13.90;99.90;;;;;;5036374;28;20087;-64
2023/10/06 03:19:37;;;;;;;1.73;1.45;;;13.90;99.90;;;;;;5054427;28;20033;-65
2023/10/06 03:22:06;;;;;;;1.80;1.40;;;13.80;99.90;;;;;;5036365;28;20033;-64
2023/10/06 03:24:33;;;;;;;2.08;1.67;;;13.80;99.90;;;;;;5036113;28;20409;-64
2023/10/06 03:26:59;;;;;;;1.67;1.27;;;13.70;99.90;;;;;;5054300;28;20053;-64
2023/10/06 03:29:39;;;;;;;1.80;1.60;;;14.00;99.90;;;;;;5054441;28;20485;-65
2023/10/06 03:32:11;;;;;;;2.30;1.77;;;13.70;99.90;;;;;;5054217;28;20045;-66
2023/10/06 03:34:37;;;;;;;2.28;1.25;;;13.60;99.90;;;;;;5053681;28;20057;-66
2023/10/06 03:37:04;;;;;;;1.50;1.25;;;13.60;99.90;;;;;;5054101;28;20060;-66
2023/10/06 03:39:31;;;;;;;1.88;1.42;;;13.70;99.90;;;;;;5053828;28;20044;-65
2023/10/06 03:42:00;;;;;;;2.20;1.80;;;13.60;99.90;;;;;;5054063;28;20116;-65
2023/10/06 03:44:29;;;;;;;2.25;1.77;;;13.60;99.90;;;;;;5036112;28;20087;-65
2023/10/06 03:47:06;;;;;;;3.30;1.95;;;13.60;99.90;;;;;;5035748;28;20468;-65
2023/10/06 03:49:33;;;;;;;3.08;1.80;;;13.70;99.90;;;;;;5053817;28;20041;-64
2023/10/06 03:51:58;;;;;;;1.50;1.40;;;13.70;99.90;;;;;;5053789;28;20130;-65
2023/10/06 03:54:24;;;;;;;2.72;1.80;;;13.70;99.90;;;;;;5053792;28;20083;-65
2023/10/06 03:56:50;;;;;;;2.47;1.90;;;14.30;99.90;;;;;;5018831;28;20463;-64
2023/10/06 03:59:16;;;;;;;1.80;1.65;;;13.70;99.90;;;;;;5053671;28;20499;-65
2023/10/06 04:01:46;;;;;;;2.53;1.75;;;13.70;99.90;;;;;;5053576;28;20091;-64
2023/10/06 04:04:22;;;;;;;3.15;1.80;;;14.00;99.90;;;;;;5035339;28;20051;-65
2023/10/06 04:06:48;;;;;;;2.60;1.90;;;13.70;99.90;;;;;;5035296;28;20041;-65
2023/10/06 04:09:27;;;;;;;2.17;1.50;;;13.70;99.90;;;;;;5053549;28;20044;-65
2023/10/06 04:11:53;;;;;;;3.97;1.85;;;13.70;99.90;;;;;;5035508;28;20036;-64
2023/10/06 04:14:20;;;;;;;2.35;1.85;;;13.70;99.90;;;;;;5053366;28;20033;-65
2023/10/06 04:16:46;;;;;;;2.00;1.55;;;13.70;99.90;;;;;;5053335;28;20043;-64
2023/10/06 04:19:17;;;;;;;1.67;1.52;;;13.70;99.90;;;;;;5053390;28;20037;-64
2023/10/06 04:21:43;;;;;;;1.65;1.55;;;13.70;99.90;;;;;;5053279;28;20040;-65
2023/10/06 04:24:09;;;;;;;2.45;1.65;;;13.70;99.90;;;;;;5053310;28;20442;-64
2023/10/06 04:26:35;;;;;;;2.08;1.35;;;13.70;99.90;;;;;;5053113;28;20049;-65
2023/10/06 04:29:01;;;;;;;2.55;1.50;;;13.70;99.90;;;;;;5053233;28;20040;-65
2023/10/06 04:31:26;;;;;;;1.85;1.42;;;13.70;99.90;;;;;;5053155;28;20442;-65
2023/10/06 04:33:53;;;;;;;1.45;1.20;;;13.70;99.90;;;;;;5052882;28;20053;-64
2023/10/06 04:36:23;;;;;;;2.22;1.48;;;13.90;99.90;;;;;;5052848;28;20036;-64
2023/10/06 04:38:48;;;;;;;1.52;1.42;;;13.70;99.90;;;;;;5053112;28;20037;-65
2023/10/06 04:41:15;;;;;;;2.60;1.65;;;13.70;99.90;;;;;;5052811;28;20037;-66
2023/10/06 04:43:44;;;;;;;1.30;1.20;;;13.60;99.90;;;;;;5052922;28;20033;-66
2023/10/06 04:46:11;;;;;;;2.13;1.10;;;13.60;99.90;;;;;;5034938;28;20412;-66
2023/10/06 04:48:38;;;;;;;1.38;1.13;;;13.60;99.90;;;;;;5052678;28;20088;-66
2023/10/06 04:51:09;;;;;;;2.38;1.38;;;13.60;99.90;;;;;;5052789;28;20041;-65
2023/10/06 04:53:36;;;;;;;2.05;1.63;;;13.60;99.90;;;;;;5034774;28;20049;-64
2023/10/06 04:56:06;;;;;;;2.22;1.63;;;13.60;99.90;;;;;;5052948;28;20448;-64
2023/10/06 04:58:32;;;;;;;1.50;1.40;;;13.60;99.90;;;;;;5052935;28;20048;-64
2023/10/06 05:01:01;;;;;;;3.70;1.48;;;13.60;99.90;;;;;;5018724;28;20401;-65
2023/10/06 05:03:27;;;;;;;2.65;1.80;;;13.60;99.90;;;;;;5034656;28;20443;-65
2023/10/06 05:05:55;;;;;;;2.10;1.15;;;13.60;99.90;;;;;;5052849;28;20037;-64
2023/10/06 05:08:22;;;;;;;2.28;1.40;;;13.90;99.90;;;;;;5036693;28;20052;-64
2023/10/06 05:10:49;;;;;;;2.10;1.50;;;13.60;99.90;;;;;;5038806;28;20097;-66
2023/10/06 05:13:16;;;;;;;2.63;1.88;;;13.60;99.90;;;;;;5056868;28;20037;-66
2023/10/06 05:15:42;;;;;;;2.05;1.42;;;13.60;99.90;;;;;;5056769;28;20119;-66
2023/10/06 05:18:12;;;;;;;2.10;1.00;;;13.60;99.90;;;;;;5038634;28;20532;-66
2023/10/06 05:20:38;;;;;;;2.95;1.58;;;13.60;99.90;;;;;;5038568;28;20041;-66
2023/10/06 05:23:07;;;;;;;3.20;1.60;;;13.60;99.90;;;;;;5038505;28;20194;-66
2023/10/06 05:25:36;;;;;;;2.20;1.38;;;13.60;99.90;;;;;;5056591;28;20365;-66
2023/10/06 05:28:03;;;;;;;2.30;1.52;;;13.80;99.90;;;;;;5056475;28;20037;-66
2023/10/06 05:30:30;;;;;;;1.98;1.30;;;13.60;99.90;;;;;;5056451;28;20064;-66
2023/10/06 05:32:58;;;;;;;1.55;1.15;;;13.60;99.90;;;;;;5056279;28;20048;-66
2023/10/06 05:35:27;;;;;;;2.00;1.80;;;13.60;99.90;;;;;;5038313;28;20044;-66
2023/10/06 05:37:53;;;;;;;1.33;1.23;;;13.60;99.90;;;;;;5056357;28;20400;-66
2023/10/06 05:40:20;;;;;;;2.83;1.40;;;13.60;99.90;;;;;;5021762;28;20037;-66
2023/10/06 05:42:49;;;;;;;3.45;2.10;;;13.60;99.90;;;;;;5055976;28;20041;-66
2023/10/06 05:45:19;;;;;;;2.45;1.38;;;13.60;99.90;;;;;;5055943;28;20049;-66
2023/10/06 05:47:54;;;;;;;1.58;1.38;;;13.60;99.90;;;;;;5056081;28;20044;-66
2023/10/06 05:50:29;;;;;;;1.70;1.25;;;13.60;99.90;;;;;;5056156;28;20045;-66
2023/10/06 05:53:04;;;;;;;2.17;1.42;;;13.60;99.90;;;;;;5056035;28;20118;-67
2023/10/06 05:55:35;;;;;;;2.70;1.33;;;13.60;99.90;;;;;;5038114;28;20048;-67
2023/10/06 05:58:14;;;;;;;1.73;1.30;;;13.60;99.90;;;;;;5037921;28;20076;-67
2023/10/06 06:00:50;;;;;;;1.55;1.30;;;13.60;99.90;;;;;;5056252;28;20507;-67
2023/10/06 06:03:20;;;;;;;2.65;1.67;;;13.60;99.90;;;;;;5037746;28;20493;-70
2023/10/06 06:05:53;;;;;;;1.40;1.30;;;13.60;99.90;;;;;;5055532;28;20104;-66
2023/10/06 06:08:20;;;;;;;3.22;1.98;;;13.70;99.90;;;;;;5055678;28;20076;-66
2023/10/06 06:10:46;;;;;;;1.20;1.00;;;13.70;99.90;;;;;;5055740;28;20037;-66
2023/10/06 06:13:14;;;;;;;3.50;1.55;;;13.70;99.90;;;;;;5055637;28;20037;-73
2023/10/06 06:15:41;;;;;;;1.55;1.20;;;13.70;99.90;;;;;;5037501;28;20033;-66
2023/10/06 06:18:08;;;;;;;1.77;1.23;;;13.70;99.90;;;;;;5037271;28;20064;-67
2023/10/06 06:20:38;;;;;;;2.25;1.10;;;13.90;99.90;;;;;;5020634;28;20068;-66
2023/10/06 06:23:05;;;;;;;3.05;1.83;;;13.90;99.90;;;;;;5055166;28;20083;-69
2023/10/06 06:25:30;;;;;;;2.33;1.35;;;14.60;99.90;;;;;;5055167;28;20120;-66
2023/10/06 06:27:59;;;;;;;3.15;1.48;;;13.90;99.90;;;;;;5055087;28;20131;-66
2023/10/06 06:30:25;;;;;;;2.45;1.88;;;13.90;99.90;;;;;;5037648;28;20033;-66
2023/10/06 06:32:55;;;;;;;1.83;1.30;;;14.10;99.90;;;;;;5020762;28;20073;-66
2023/10/06 06:35:22;;;;;;;1.83;1.20;;;14.20;99.90;;;;;;5020627;28;20045;-65
2023/10/06 06:37:56;;;;;;;2.75;1.70;;;14.10;99.90;;;;;;5037072;28;20072;-65
2023/10/06 06:40:22;;;;;;;2.60;1.25;;;14.10;99.90;;;;;;5037234;28;20488;-65
2023/10/06 06:42:49;;;;;;;1.88;1.20;;;14.00;99.90;;;;;;5054827;28;20040;-65
2023/10/06 06:45:15;;;;;;;1.42;1.33;;;14.00;99.90;;;;;;5055128;28;20471;-65
2023/10/06 06:47:44;;;;;;;3.60;1.95;;;14.40;99.90;;;;;;5036779;28;20124;-65
2023/10/06 06:50:15;;;;;;;3.60;1.58;;;14.30;99.90;;;;;;5037152;28;20033;-65
2023/10/06 06:52:42;;;;;;;5.72;1.80;;;14.20;99.90;;;;;;5054839;28;20083;-65
2023/10/06 06:55:14;;;;;;;1.88;1.35;;;14.10;99.90;;;;;;5055002;28;20041;-66
2023/10/06 06:57:44;;;;;;;2.50;1.60;;;14.30;99.90;;;;;;5054826;28;20040;-66
2023/10/06 07:00:18;;;;;;;1.85;1.50;;;13.90;99.90;;;;;;5037002;28;20128;-65
2023/10/06 07:02:50;;;;;;;2.42;1.38;;;14.10;99.90;;;;;;5054798;28;20040;-68
2023/10/06 07:05:17;;;;;;;3.08;1.73;;;14.30;99.90;;;;;;5054683;28;20040;-65
2023/10/06 07:07:43;;;;;;;1.85;1.50;;;14.20;99.90;;;;;;5054352;28;20102;-65
2023/10/06 07:10:14;;;;;;;2.88;1.65;;;14.10;99.90;;;;;;5054776;28;20111;-64
2023/10/06 07:12:42;;;;;;;2.78;1.50;;;14.20;99.90;;;;;;5036404;28;20052;-64
2023/10/06 07:15:14;;;;;;;2.65;1.65;;;14.00;99.90;;;;;;5036276;28;20045;-64
2023/10/06 07:17:45;;;;;;;2.25;1.65;;;14.30;99.90;;;;;;5019824;28;20044;-64
2023/10/06 07:20:14;;;;;;;2.45;1.60;;;14.40;99.90;;;;;;5054441;28;20076;-64
2023/10/06 07:22:43;;;;;;;2.25;1.75;;;14.40;99.90;;;;;;5054311;28;20073;-64
2023/10/06 07:25:10;;;;;;;3.08;1.40;;;14.20;99.90;;;;;;5053927;28;20040;-64
2023/10/06 07:27:40;;;;;;;2.03;1.27;;;14.50;99.90;;;;;;5054085;28;20546;-65
2023/10/06 07:30:10;;;;;;;2.85;1.42;;;15.20;99.90;;;;;;5035782;28;20041;-66
2023/10/06 07:32:43;;;;;;;1.30;1.20;;;14.50;99.90;;;;;;5019550;28;20041;-68
2023/10/06 07:35:17;;;;;;;1.58;1.20;;;14.40;99.90;;;;;;5035917;28;20048;-68
2023/10/06 07:37:44;;;;;;;2.72;1.65;;;15.10;99.90;;;;;;5035949;28;20049;-64
2023/10/06 07:40:18;;;;;;;1.50;1.00;;;14.70;99.90;;;;;;5035857;28;20051;-65
2023/10/06 07:42:45;;;;;;;2.55;1.33;;;14.70;99.90;;;;;;5054014;28;20579;-64
2023/10/06 07:45:12;;;;;;;1.67;1.45;;;14.70;99.90;;;;;;5053914;28;20041;-64
2023/10/06 07:47:39;;;;;;;2.05;1.52;;;14.70;99.90;;;;;;5035652;28;20052;-64
2023/10/06 07:50:06;;;;;;;1.80;1.45;;;14.70;99.90;;;;;;5053800;28;20083;-64
2023/10/06 07:52:36;;;;;;;2.70;1.85;;;14.80;99.90;;;;;;5053671;28;20104;-65
2023/10/06 07:55:06;;;;;;;1.63;1.30;;;14.70;99.90;;;;;;5035663;28;20060;-64
2023/10/06 07:57:36;;;;;;;2.73;1.57;;;14.70;99.90;;;;;;5053399;28;20048;-64
2023/10/06 08:00:06;;;;;;;1.92;1.50;;;14.80;99.90;;;;;;5053659;28;20090;-66
2023/10/06 08:02:39;;;;;;;2.05;1.85;;;14.80;99.90;;;;;;5053408;28;20045;-66
2023/10/06 08:05:08;;;;;;;2.58;2.05;;;14.90;99.90;;;;;;5035591;28;20574;-66
2023/10/06 08:07:33;;;;;;;2.08;1.27;;;14.90;99.90;;;;;;5053110;28;20170;-67
2023/10/06 08:10:00;;;;;;;2.17;1.30;;;15.10;99.90;;;;;;5035350;28;20072;-69
2023/10/06 08:12:27;;;;;;;1.73;1.38;;;15.40;99.90;;;;;;5053323;28;20442;-65
2023/10/06 08:14:54;;;;;;;2.28;1.38;;;15.30;99.90;;;;;;5053041;28;20044;-65
2023/10/06 08:17:20;;;;;;;3.10;1.63;;;15.00;99.90;;;;;;5053268;28;20485;-66
2023/10/06 08:19:46;;;;;;;2.25;1.58;;;15.30;99.90;;;;;;5018659;28;20048;-65
2023/10/06 08:22:13;;;;;;;1.85;1.55;;;15.00;99.90;;;;;;5053080;28;20116;-65
2023/10/06 08:24:38;;;;;;;2.60;1.73;;;15.00;99.90;;;;;;5053180;28;20443;-65
2023/10/06 08:27:06;;;;;;;2.05;1.50;;;14.90;99.90;;;;;;5053105;28;20041;-66
2023/10/06 08:29:33;;;;;;;2.50;1.75;;;15.00;99.90;;;;;;5053150;28;20041;-65
2023/10/06 08:31:59;;;;;;;1.50;1.30;;;14.90;99.90;;;;;;5053128;28;20041;-64
2023/10/06 08:34:25;;;;;;;1.58;1.48;;;15.20;99.90;;;;;;5052708;28;20059;-65
2023/10/06 08:36:51;;;;;;;2.60;1.48;;;15.00;99.90;;;;;;5052680;28;20040;-64
2023/10/06 08:39:17;;;;;;;2.30;1.75;;;14.80;99.90;;;;;;5052846;28;20107;-64
2023/10/06 08:41:44;;;;;;;1.63;1.27;;;15.00;99.90;;;;;;5052941;28;20044;-65
2023/10/06 08:44:13;;;;;;;3.42;2.00;;;14.90;99.90;;;;;;5052795;28;20033;-78
2023/10/06 08:46:44;;;;;;;3.40;1.90;;;15.10;99.90;;;;;;5034782;28;20048;-65
2023/10/06 08:49:11;;;;;;;4.07;1.90;;;15.10;99.90;;;;;;5052830;28;20084;-65
2023/10/06 08:51:40;;;;;;;2.55;1.50;;;15.20;99.90;;;;;;5052786;28;20033;-66
2023/10/06 08:54:13;;;;;;;2.33;1.58;;;15.30;99.90;;;;;;5052728;28;20163;-65
2023/10/06 08:56:39;;;;;;;1.77;1.40;;;15.30;99.90;;;;;;5052504;28;20167;-66
2023/10/06 08:59:05;;;;;;;2.00;1.45;;;15.40;99.90;;;;;;5052737;28;20040;-66
2023/10/06 09:01:32;;;;;;;2.22;1.27;;;15.40;99.90;;;;;;5052373;28;20048;-65
2023/10/06 09:04:04;;;;;;;1.80;1.08;;;15.40;99.90;;;;;;5052361;28;20037;-66
2023/10/06 09:06:30;;;;;;;3.00;1.30;;;15.50;99.90;;;;;;5034532;28;20076;-66
2023/10/06 09:08:56;;;;;;;2.22;1.65;;;15.60;99.90;;;;;;5052745;28;20073;-66
2023/10/06 09:11:41;;;;;;;2.20;1.58;;;15.70;99.90;;;;;;5052720;28;20037;-66
2023/10/06 09:14:08;;;;;;;1.50;1.10;;;15.70;99.90;;;;;;5034289;28;20053;-66
2023/10/06 09:16:50;;;;;;;1.35;1.10;;;16.10;99.90;;;;;;5034460;28;20443;-66
2023/10/06 09:19:16;;;;;;;1.65;1.33;;;15.70;99.90;;;;;;5052724;28;20064;-65
2023/10/06 09:22:01;;;;;;;1.25;1.15;;;15.80;99.90;;;;;;5034416;28;20106;-65
2023/10/06 09:24:27;;;;;;;2.03;1.23;;;16.30;99.90;;;;;;5052575;28;20505;-66
2023/10/06 09:26:55;;;;;;;2.65;1.58;;;16.10;99.90;;;;;;5052504;28;20077;-66
2023/10/06 09:29:32;;;;;;;1.73;1.40;;;15.90;99.90;;;;;;5052713;28;20073;-65
2023/10/06 09:32:00;;;;;;;3.05;1.85;;;16.50;99.90;;;;;;5052256;28;20068;-66
2023/10/06 09:34:27;;;;;;;1.35;1.15;;;;;;;;;;5034316;28;20064;-65
2023/10/06 09:36:53;;;;;;;1.08;0.95;;;16.50;99.90;;;;;;5017853;28;20055;-65
2023/10/06 09:39:32;;;;;;;2.30;1.30;;;16.50;99.90;;;;;;5052532;28;20036;-65
2023/10/06 09:42:05;;;;;;;2.28;1.70;;;16.80;99.90;;;;;;5034330;28;20053;-65
2023/10/06 09:44:34;;;;;;;2.22;1.40;;;16.70;99.90;;;;;;5018206;28;20084;-65
2023/10/06 09:47:03;;;;;;;2.10;1.48;;;17.10;99.90;;;;;;5052287;28;20045;-65
2023/10/06 09:49:31;;;;;;;1.88;1.35;;;17.30;99.90;;;;;;5052478;28;20041;-66
2023/10/06 09:52:01;;;;;;;1.30;1.17;;;16.90;99.90;;;;;;5052433;28;20087;-66
2023/10/06 09:54:28;;;;;;;1.90;1.50;;;17.70;99.90;;;;;;5053995;28;20037;-66
2023/10/06 09:56:55;;;;;;;1.98;1.42;;;16.80;99.90;;;;;;5056004;28;20446;-67
2023/10/06 09:59:23;;;;;;;2.30;1.27;;;16.90;99.90;;;;;;5038045;28;20045;-67
2023/10/06 10:01:51;;;;;;;2.08;1.33;;;16.90;99.90;;;;;;5055718;28;20045;-66
2023/10/06 10:04:18;;;;;;;1.65;1.45;;;16.90;99.90;;;;;;5055897;28;20068;-67
2023/10/06 10:06:44;;;;;;;2.55;1.40;;;16.70;99.90;;;;;;5037892;28;20130;-67
2023/10/06 10:09:16;;;;;;;2.17;1.35;;;16.80;99.90;;;;;;5037971;28;20523;-70
2023/10/06 10:12:30;;;;;;;3.17;2.05;;;16.90;99.90;;;;;;5037558;28;20399;-66
2023/10/06 10:15:37;;;;;;;1.55;1.30;;;16.80;99.90;;;;;;5024550;28;20045;-66
2023/10/06 10:18:15;;;;;;;2.65;1.67;;;16.80;99.90;;;;;;5055648;28;20051;-66
2023/10/06 10:20:41;;;;;;;1.60;1.27;;;16.90;99.90;;;;;;5037342;28;20080;-67
2023/10/06 10:23:13;;;;;;;1.80;1.38;;;16.90;99.90;;;;;;5055289;28;20079;-72
2023/10/06 10:25:39;;;;;;;2.38;1.45;;;16.90;99.90;;;;;;5055232;28;20028;-65
2023/10/06 10:28:27;;;;;;;2.45;1.63;;;17.00;99.90;;;;;;5037124;28;20049;-67
2023/10/06 10:30:59;;;;;;;1.75;1.30;;;17.10;99.90;;;;;;5037265;28;20040;-66
2023/10/06 10:33:37;;;;;;;1.88;1.23;;;17.20;99.90;;;;;;5055041;28;20409;-66
2023/10/06 10:36:15;;;;;;;3.20;1.35;;;17.10;99.90;;;;;;5037282;28;20045;-66
2023/10/06 10:38:42;;;;;;;3.05;1.38;;;17.10;99.90;;;;;;5036786;28;20076;-66
2023/10/06 10:41:09;;;;;;;1.48;1.25;;;17.10;99.90;;;;;;5055123;28;20466;-67
2023/10/06 10:43:48;;;;;;;3.08;1.48;;;17.10;99.90;;;;;;5054966;28;20045;-67
2023/10/06 10:46:30;;;;;;;1.45;1.25;;;17.20;99.90;;;;;;5036915;28;20040;-66
2023/10/06 10:49:01;;;;;;;2.47;1.40;;;17.20;99.90;;;;;;5054810;28;20112;-65
2023/10/06 10:51:33;;;;;;;2.35;1.33;;;17.40;99.90;;;;;;5036846;28;20120;-65
2023/10/06 10:53:59;;;;;;;3.22;1.33;;;17.60;99.90;;;;;;5054948;28;20480;-65
2023/10/06 10:56:34;;;;;;;1.20;1.10;;;17.60;99.90;;;;;;5054592;28;20041;-65
2023/10/06 10:59:00;;;;;;;1.65;1.45;;;18.00;99.90;;;;;;5054783;28;20037;-65
2023/10/06 11:01:29;;;;;;;2.28;1.33;;;18.10;99.90;;;;;;5054962;28;20047;-66
2023/10/06 11:04:15;;;;;;;2.22;1.60;;;18.20;99.90;;;;;;5054790;28;20082;-67
2023/10/06 11:06:44;;;;;;;1.95;1.38;;;18.20;99.90;;;;;;5053478;28;20056;-66
2023/10/06 11:11:56;;;;;;;1.08;1.00;;;18.30;99.90;;;;;;5054193;28;20061;-68
2023/10/06 11:14:28;;;;;;;1.83;1.27;;;18.30;99.90;;;;;;5019820;28;20083;-67
2023/10/06 11:17:17;;;;;;;1.98;1.63;;;18.70;99.90;;;;;;5036347;28;20045;-67
2023/10/06 11:19:41;;;;;;;1.27;1.08;;;18.30;99.90;;;;;;5035349;28;20063;-65
2023/10/06 11:22:14;;;;;;;3.05;1.35;;;18.30;99.90;;;;;;5054375;28;20119;-65
2023/10/06 11:24:41;;;;;;;1.88;1.30;;;18.30;99.90;;;;;;5054018;28;20083;-65
2023/10/06 11:27:14;;;;;;;2.78;1.70;;;18.30;99.90;;;;;;5053978;28;20049;-65
2023/10/06 11:29:40;;;;;;;1.17;1.08;;;18.10;99.90;;;;;;5054250;28;20037;-65
2023/10/06 11:32:07;;;;;;;1.55;1.10;;;18.10;99.90;;;;;;5054265;28;20033;-65
2023/10/06 11:34:33;;;;;;;2.05;1.35;;;18.00;99.90;;;;;;5053687;28;20049;-65
2023/10/06 11:37:01;;;;;;;3.42;1.63;;;17.90;99.90;;;;;;5054121;28;20044;-65
2023/10/06 11:39:30;;;;;;;1.77;1.13;;;18.10;99.90;;;;;;5054226;28;20045;-66
2023/10/06 11:42:23;;;;;;;1.75;1.27;;;17.90;99.90;;;;;;5053993;28;20041;-66
2023/10/06 11:44:52;;;;;;;2.15;1.35;;;17.80;99.90;;;;;;5036027;28;20099;-66
2023/10/06 11:47:35;;;;;;;1.75;1.02;;;17.90;99.90;;;;;;5053586;28;20125;-67
2023/10/06 11:50:05;;;;;;;2.30;1.40;;;17.80;99.90;;;;;;5053527;28;20047;-67
2023/10/06 11:52:31;;;;;;;2.97;1.58;;;17.80;99.90;;;;;;5035786;28;20045;-66
2023/10/06 11:54:58;;;;;;;2.28;1.52;;;17.80;99.90;;;;;;5035855;28;20489;-67
2023/10/06 11:57:45;;;;;;;1.60;1.20;;;17.80;99.90;;;;;;5053429;28;20056;-67
2023/10/06 12:00:12;;;;;;;1.90;1.45;;;17.90;99.90;;;;;;5035885;28;20140;-67
2023/10/06 12:02:50;;;;;;;1.63;1.17;;;18.00;99.90;;;;;;5053531;28;20127;-67
2023/10/06 12:05:18;;;;;;;2.47;1.63;;;18.00;99.90;;;;;;5053594;28;20071;-67
2023/10/06 12:07:47;;;;;;;1.52;1.27;;;18.10;99.90;;;;;;5053422;28;20044;-66
2023/10/06 12:10:17;;;;;;;2.65;1.50;;;18.50;99.90;;;;;;5053515;28;20037;-67
2023/10/06 12:12:44;;;;;;;1.90;1.45;;;18.00;99.90;;;;;;5053498;28;20040;-67
2023/10/06 12:15:13;;;;;;;1.80;1.60;;;18.40;99.90;;;;;;5053437;28;20033;-67
2023/10/06 12:17:38;;;;;;;1.88;1.42;;;18.10;99.90;;;;;;5053025;28;20426;-71
2023/10/06 12:20:07;;;;;;;1.45;1.17;;;18.10;99.90;;;;;;5035426;28;20048;-71
2023/10/06 12:22:33;;;;;;;1.92;1.33;;;18.10;99.90;;;;;;5035174;28;20048;-73
2023/10/06 12:24:58;;;;;;;1.55;1.20;;;18.10;99.90;;;;;;5035241;28;20045;-72
2023/10/06 12:27:26;;;;;;;1.42;1.23;;;18.10;99.90;;;;;;5035338;28;20063;-72
2023/10/06 12:29:55;;;;;;;1.90;1.30;;;18.10;99.90;;;;;;5035108;28;20045;-72
2023/10/06 12:32:21;;;;;;;3.28;1.60;;;18.10;99.90;;;;;;5035088;28;20032;-71
2023/10/06 12:34:47;;;;;;;2.63;1.17;;;18.10;99.90;;;;;;5034913;28;20440;-73
2023/10/06 12:37:15;;;;;;;1.85;1.27;;;18.10;99.90;;;;;;5035003;28;20052;-72
2023/10/06 12:39:41;;;;;;;1.77;1.60;;;18.30;99.90;;;;;;5034967;28;20075;-72
2023/10/06 12:42:07;;;;;;;1.88;1.42;;;18.30;99.90;;;;;;5035045;28;20044;-68
2023/10/06 12:44:39;;;;;;;1.85;1.52;;;18.30;99.90;;;;;;5052774;28;20059;-68
2023/10/06 12:47:10;;;;;;;1.52;1.30;;;18.40;99.90;;;;;;5053000;28;20049;-68
2023/10/06 12:49:37;;;;;;;1.88;1.50;;;18.50;99.90;;;;;;5053085;28;20040;-68
2023/10/06 12:52:02;;;;;;;1.38;1.27;;;18.40;99.50;;;;;;5034917;28;20040;-68
2023/10/06 12:54:29;;;;;;;2.28;1.90;;;18.60;98.80;;;;;;5034817;28;20119;-68
2023/10/06 12:56:55;;;;;;;1.58;1.30;;;18.70;99.50;;;;;;5052666;28;20053;-68
2023/10/06 12:59:21;;;;;;;3.70;1.27;;;18.80;98.40;;;;;;5034713;28;20052;-68
2023/10/06 13:01:49;;;;;;;1.58;1.17;;;18.70;98.50;;;;;;5052510;28;20470;-69
2023/10/06 13:04:15;;;;;;;2.83;1.50;;;18.80;99.60;;;;;;5052595;28;20076;-68
2023/10/06 13:06:41;;;;;;;1.80;1.45;;;18.90;99.40;;;;;;5034907;28;20045;-67
2023/10/06 13:09:08;;;;;;;2.25;1.40;;;18.80;99.90;;;;;;5052951;28;20098;-69